Time;durP1;ratioP1;P1;durP2;ratioP2;P2;SDS_P1;SDS_P2;PMS_P1;PMS_P2;Temp;Humidity;BMP_temperature;BMP_pressure;BME280_temperature;BME280_humidity;BME280_pressure;Samples;Min_cycle;Max_cycle;Signal;HPM_P1;HPM_P2
2022/09/12 00:01:14;;;;;;;13.82;5.25;;;14.20;99.90;;;;;;5024397;28;20048;-74
2022/09/12 00:03:40;;;;;;;11.15;5.38;;;14.20;99.90;;;;;;4997505;28;20107;-73
2022/09/12 00:06:12;;;;;;;10.10;5.60;;;14.20;99.90;;;;;;5025610;28;20061;-73
2022/09/12 00:08:38;;;;;;;11.00;5.30;;;14.20;99.90;;;;;;5015517;28;20112;-72
2022/09/12 00:11:06;;;;;;;9.65;5.28;;;14.10;99.90;;;;;;5026422;28;20442;-73
2022/09/12 00:13:32;;;;;;;11.52;5.75;;;14.10;99.90;;;;;;5023386;28;20503;-73
2022/09/12 00:15:58;;;;;;;9.52;5.50;;;14.10;99.90;;;;;;5017720;28;20096;-73
2022/09/12 00:18:24;;;;;;;9.30;5.20;;;14.10;99.90;;;;;;5020761;28;20514;-72
2022/09/12 00:20:49;;;;;;;9.65;5.63;;;14.00;99.90;;;;;;5024279;28;20167;-72
2022/09/12 00:23:15;;;;;;;10.90;5.65;;;14.00;99.90;;;;;;5017850;28;20053;-73
2022/09/12 00:25:46;;;;;;;9.30;5.28;;;14.00;99.90;;;;;;5001199;28;20050;-72
2022/09/12 00:28:14;;;;;;;9.88;5.55;;;13.90;99.90;;;;;;5017228;28;20041;-72
2022/09/12 00:30:46;;;;;;;10.48;5.78;;;13.90;99.90;;;;;;4997321;28;20054;-72
2022/09/12 00:33:12;;;;;;;9.77;5.57;;;13.90;99.90;;;;;;5028603;28;20037;-72
2022/09/12 00:35:46;;;;;;;11.73;5.55;;;13.90;99.90;;;;;;5026570;28;20037;-72
2022/09/12 00:38:14;;;;;;;11.23;6.28;;;13.90;99.90;;;;;;5007590;28;20049;-73
2022/09/12 00:40:40;;;;;;;10.30;5.55;;;14.00;99.90;;;;;;5020112;28;20492;-73
2022/09/12 00:43:31;;;;;;;10.20;5.68;;;13.90;99.90;;;;;;5011486;28;20037;-73
2022/09/12 00:45:57;;;;;;;9.98;5.85;;;13.90;99.90;;;;;;5029848;28;20041;-72
2022/09/12 00:48:36;;;;;;;11.60;6.20;;;13.90;99.90;;;;;;5007747;28;20073;-72
2022/09/12 00:51:02;;;;;;;10.90;6.03;;;13.90;99.90;;;;;;5018693;28;20068;-72
2022/09/12 00:53:28;;;;;;;10.02;6.13;;;13.90;99.90;;;;;;5023726;28;20455;-72
2022/09/12 00:55:54;;;;;;;11.30;7.00;;;13.80;99.90;;;;;;5027302;28;20044;-72
2022/09/12 00:58:30;;;;;;;10.48;6.03;;;13.90;99.90;;;;;;5021859;28;20048;-73
2022/09/12 01:00:57;;;;;;;10.55;6.55;;;13.90;99.90;;;;;;5023670;28;20045;-73
2022/09/12 01:03:24;;;;;;;10.43;6.55;;;13.80;99.90;;;;;;5009767;28;20121;-72
2022/09/12 01:06:04;;;;;;;10.68;5.88;;;13.80;99.90;;;;;;5023553;28;20050;-72
2022/09/12 01:08:33;;;;;;;12.27;6.47;;;13.80;99.90;;;;;;5021989;28;20129;-73
2022/09/12 01:10:58;;;;;;;10.25;6.35;;;13.80;99.90;;;;;;5025653;28;20068;-73
2022/09/12 01:13:24;;;;;;;11.88;6.28;;;13.80;99.90;;;;;;5006629;28;20092;-72
2022/09/12 01:15:51;;;;;;;10.90;6.60;;;13.80;99.90;;;;;;5014206;28;20081;-73
2022/09/12 01:18:36;;;;;;;11.80;7.13;;;13.70;99.90;;;;;;5024358;28;20049;-73
2022/09/12 01:21:20;;;;;;;10.82;6.47;;;13.70;99.90;;;;;;5023115;28;20136;-73
2022/09/12 01:24:22;;;;;;;11.55;6.53;;;13.70;99.90;;;;;;5023201;28;20044;-71
2022/09/12 01:27:23;;;;;;;11.13;6.85;;;13.60;99.90;;;;;;5024514;28;20091;-72
2022/09/12 01:30:18;;;;;;;11.57;6.75;;;13.60;99.90;;;;;;5012900;28;20556;-73
2022/09/12 01:33:13;;;;;;;11.05;6.40;;;13.60;99.90;;;;;;5015857;28;20411;-72
2022/09/12 01:36:12;;;;;;;9.63;5.82;;;13.60;99.90;;;;;;5014680;28;20603;-73
2022/09/12 01:38:53;;;;;;;12.32;6.13;;;13.50;99.90;;;;;;5014539;28;20064;-71
2022/09/12 01:41:44;;;;;;;10.20;6.45;;;13.50;99.90;;;;;;5010411;28;20041;-72
2022/09/12 01:44:51;;;;;;;12.95;6.82;;;13.50;99.90;;;;;;5018889;28;20042;-72
2022/09/12 01:47:25;;;;;;;11.07;6.32;;;13.40;99.90;;;;;;5022914;28;20071;-72
2022/09/12 01:50:29;;;;;;;11.30;6.80;;;13.40;99.90;;;;;;5021874;28;20276;-73
2022/09/12 01:53:02;;;;;;;10.52;6.90;;;13.40;99.90;;;;;;5006428;28;20037;-72
2022/09/12 01:55:41;;;;;;;;;;;13.40;99.90;;;;;;5000462;28;20050;-72
2022/09/12 01:58:25;;;;;;;11.63;7.00;;;13.30;99.90;;;;;;5003439;28;20376;-72
2022/09/12 02:00:58;;;;;;;11.55;7.13;;;13.30;99.90;;;;;;5020092;28;20112;-73
2022/09/12 02:03:32;;;;;;;11.77;7.35;;;13.30;99.90;;;;;;5023231;28;20041;-72
2022/09/12 02:06:17;;;;;;;11.50;7.18;;;13.30;99.90;;;;;;5028644;28;20037;-73
2022/09/12 02:08:51;;;;;;;12.05;7.50;;;13.30;99.90;;;;;;5023080;28;20056;-72
2022/09/12 02:11:19;;;;;;;12.40;8.10;;;13.30;99.90;;;;;;5026000;28;20054;-73
2022/09/12 02:14:01;;;;;;;12.77;8.05;;;13.30;99.90;;;;;;5019284;28;20199;-73
2022/09/12 02:16:40;;;;;;;11.00;7.30;;;13.30;99.90;;;;;;5015303;28;20084;-72
2022/09/12 02:19:15;;;;;;;11.95;7.63;;;13.30;99.90;;;;;;5005506;28;20521;-71
2022/09/12 02:21:47;;;;;;;10.73;6.82;;;13.20;99.90;;;;;;5025333;28;20036;-72
2022/09/12 02:24:14;;;;;;;10.27;6.57;;;13.10;99.90;;;;;;5001300;28;20038;-73
2022/09/12 02:26:48;;;;;;;12.13;6.93;;;13.10;99.90;;;;;;5007338;28;20044;-73
2022/09/12 02:29:15;;;;;;;13.50;7.88;;;13.10;99.90;;;;;;5006777;28;20055;-73
2022/09/12 02:31:53;;;;;;;11.23;7.78;;;13.10;99.90;;;;;;5020170;28;20218;-73
2022/09/12 02:34:18;;;;;;;12.70;7.57;;;13.10;99.90;;;;;;5003712;28;20131;-73
2022/09/12 02:37:24;;;;;;;11.40;7.80;;;13.10;99.90;;;;;;4997982;28;20085;-73
2022/09/12 02:39:54;;;;;;;12.15;8.25;;;13.10;99.90;;;;;;5037244;28;20045;-72
2022/09/12 02:42:21;;;;;;;12.77;8.48;;;13.10;99.90;;;;;;5011810;28;20041;-73
2022/09/12 02:44:48;;;;;;;13.93;9.02;;;13.00;99.90;;;;;;5018674;28;20173;-72
2022/09/12 02:47:45;;;;;;;16.02;9.35;;;13.00;99.90;;;;;;5025366;28;20045;-73
2022/09/12 02:50:12;;;;;;;13.75;9.52;;;13.00;99.90;;;;;;5024010;28;20049;-73
2022/09/12 02:52:39;;;;;;;14.45;9.40;;;13.00;99.90;;;;;;5003429;28;20054;-73
2022/09/12 02:55:06;;;;;;;13.73;9.38;;;13.00;99.90;;;;;;5019498;28;20446;-73
2022/09/12 02:57:35;;;;;;;15.43;10.02;;;13.00;99.90;;;;;;5014397;28;20049;-72
2022/09/12 03:00:01;;;;;;;15.18;10.68;;;13.00;99.90;;;;;;5009412;28;20037;-73
2022/09/12 03:02:39;;;;;;;14.00;9.98;;;13.00;99.90;;;;;;5015361;28;20037;-72
2022/09/12 03:05:23;;;;;;;16.45;9.38;;;13.00;99.90;;;;;;4995202;28;20037;-73
2022/09/12 03:08:23;;;;;;;13.93;10.15;;;13.00;99.90;;;;;;5006612;28;20037;-72
2022/09/12 03:10:49;;;;;;;14.82;10.38;;;13.00;99.90;;;;;;5020336;28;20045;-73
2022/09/12 03:13:38;;;;;;;12.90;9.10;;;12.90;99.90;;;;;;5023483;28;20751;-73
2022/09/12 03:16:13;;;;;;;14.43;10.38;;;13.00;99.90;;;;;;5024717;28;20037;-72
2022/09/12 03:19:22;;;;;;;14.00;10.40;;;13.00;99.90;;;;;;5021337;28;20053;-72
2022/09/12 03:22:02;;;;;;;15.50;10.75;;;13.00;99.90;;;;;;5017723;28;20048;-73
2022/09/12 03:24:47;;;;;;;15.52;11.70;;;12.90;99.90;;;;;;5021510;28;20087;-73
2022/09/12 03:27:36;;;;;;;16.25;10.63;;;13.00;99.90;;;;;;5000432;28;20443;-72
2022/09/12 03:30:05;;;;;;;14.15;10.80;;;12.90;99.90;;;;;;5019394;28;20037;-73
2022/09/12 03:32:44;;;;;;;16.35;12.18;;;12.90;99.90;;;;;;5022770;28;20048;-72
2022/09/12 03:35:10;;;;;;;17.20;12.88;;;12.90;99.90;;;;;;5027894;28;20475;-72
2022/09/12 03:37:36;;;;;;;15.18;11.73;;;12.90;99.90;;;;;;5014276;28;20108;-72
2022/09/12 03:40:06;;;;;;;16.08;12.25;;;12.90;99.90;;;;;;4986205;28;20057;-73
2022/09/12 03:42:32;;;;;;;15.05;11.57;;;12.70;99.90;;;;;;5012037;28;20056;-72
2022/09/12 03:44:58;;;;;;;15.73;11.80;;;12.90;99.90;;;;;;5011068;28;20041;-73
2022/09/12 03:47:24;;;;;;;16.17;12.25;;;12.90;99.90;;;;;;5006705;28;20052;-73
2022/09/12 03:49:51;;;;;;;15.77;11.18;;;12.90;99.90;;;;;;5022226;28;20124;-73
2022/09/12 03:52:17;;;;;;;16.25;12.38;;;12.90;99.90;;;;;;5008206;28;20046;-72
2022/09/12 03:54:43;;;;;;;16.52;12.68;;;12.80;99.90;;;;;;5025287;28;20041;-72
2022/09/12 03:57:09;;;;;;;17.40;13.60;;;12.80;99.90;;;;;;4989539;28;20095;-73
2022/09/12 03:59:35;;;;;;;18.77;13.93;;;12.80;99.90;;;;;;5016852;28;20078;-72
2022/09/12 04:02:01;;;;;;;16.02;12.57;;;12.90;99.90;;;;;;5004032;28;20049;-72
2022/09/12 04:04:26;;;;;;;20.45;14.85;;;12.90;99.90;;;;;;4992409;28;20037;-72
2022/09/12 04:06:52;;;;;;;20.00;14.60;;;12.90;99.90;;;;;;5008187;28;20053;-73
2022/09/12 04:09:18;;;;;;;18.15;13.50;;;12.90;99.90;;;;;;5020115;28;20045;-73
2022/09/12 04:11:44;;;;;;;17.10;12.35;;;12.90;99.90;;;;;;5001705;28;20405;-73
2022/09/12 04:14:10;;;;;;;14.52;11.35;;;12.90;99.90;;;;;;4994459;28;20045;-72
2022/09/12 04:16:35;;;;;;;15.10;11.13;;;12.90;99.90;;;;;;5029897;28;20037;-72
2022/09/12 04:19:01;;;;;;;15.27;10.02;;;12.90;99.90;;;;;;5011375;28;20539;-72
2022/09/12 04:21:27;;;;;;;13.25;9.70;;;12.90;99.90;;;;;;5030676;28;20069;-72
2022/09/12 04:23:53;;;;;;;13.93;9.38;;;12.80;99.90;;;;;;5030877;28;20435;-73
2022/09/12 04:26:20;;;;;;;13.80;9.38;;;12.80;99.90;;;;;;5030188;28;20037;-73
2022/09/12 04:28:46;;;;;;;13.32;9.77;;;12.80;99.90;;;;;;5030466;28;20038;-73
2022/09/12 04:31:18;;;;;;;13.38;10.02;;;12.60;99.90;;;;;;5019601;28;20151;-72
2022/09/12 04:33:45;;;;;;;16.15;11.20;;;12.80;99.90;;;;;;5022898;28;20041;-72
2022/09/12 04:36:16;;;;;;;17.92;12.25;;;12.80;99.90;;;;;;5020799;28;20053;-72
2022/09/12 04:38:43;;;;;;;17.80;12.73;;;12.80;99.90;;;;;;5024665;28;20057;-72
2022/09/12 04:41:19;;;;;;;18.30;14.00;;;12.80;99.90;;;;;;5023102;28;20123;-73
2022/09/12 04:43:47;;;;;;;17.92;13.07;;;12.80;99.90;;;;;;5029235;28;20129;-72
2022/09/12 04:46:14;;;;;;;18.45;13.80;;;12.80;99.90;;;;;;5001682;28;20072;-73
2022/09/12 04:48:41;;;;;;;20.13;13.98;;;12.80;99.90;;;;;;5007954;28;20557;-72
2022/09/12 04:51:07;;;;;;;19.33;14.90;;;12.90;99.90;;;;;;5004107;28;20050;-72
2022/09/12 04:53:32;;;;;;;19.33;14.32;;;13.30;99.90;;;;;;5024974;28;20682;-73
2022/09/12 04:56:06;;;;;;;21.27;15.90;;;13.00;99.90;;;;;;4992358;28;20120;-72
2022/09/12 04:58:33;;;;;;;20.02;15.63;;;13.00;99.90;;;;;;4986269;28;20041;-72
2022/09/12 05:01:06;;;;;;;20.15;15.25;;;13.10;99.90;;;;;;5000667;28;20080;-73
2022/09/12 05:03:33;;;;;;;20.63;15.85;;;13.10;99.90;;;;;;5006675;28;20128;-72
2022/09/12 05:06:02;;;;;;;21.73;16.00;;;13.20;99.90;;;;;;5000767;28;20100;-72
2022/09/12 05:08:28;;;;;;;22.27;16.67;;;13.20;99.90;;;;;;5019408;28;20064;-72
2022/09/12 05:10:54;;;;;;;28.38;18.65;;;13.30;99.90;;;;;;5013310;28;20072;-72
2022/09/12 05:13:21;;;;;;;23.25;17.95;;;13.30;99.90;;;;;;5010112;28;20073;-72
2022/09/12 05:15:57;;;;;;;24.83;17.85;;;13.40;99.90;;;;;;5012906;28;20057;-73
2022/09/12 05:18:23;;;;;;;22.60;16.90;;;13.40;99.90;;;;;;5013717;28;20077;-72
2022/09/12 05:20:49;;;;;;;24.35;17.98;;;13.50;99.90;;;;;;5020143;28;20080;-72
2022/09/12 05:23:14;;;;;;;24.38;18.85;;;13.50;99.90;;;;;;4987996;28;20103;-73
2022/09/12 05:25:51;;;;;;;24.50;18.67;;;13.60;99.90;;;;;;5019232;28;20038;-71
2022/09/12 05:28:18;;;;;;;26.48;18.50;;;13.60;99.90;;;;;;5029866;28;20076;-72
2022/09/12 05:30:44;;;;;;;23.88;17.83;;;13.70;99.90;;;;;;5008075;28;20041;-72
2022/09/12 05:33:10;;;;;;;24.48;18.13;;;13.70;99.90;;;;;;5022755;28;20037;-73
2022/09/12 05:35:37;;;;;;;25.45;18.65;;;13.80;99.90;;;;;;5002672;28;20080;-73
2022/09/12 05:38:04;;;;;;;26.10;18.65;;;13.80;99.90;;;;;;4998438;28;20037;-73
2022/09/12 05:40:31;;;;;;;23.45;18.15;;;13.90;99.90;;;;;;5022876;28;20029;-73
2022/09/12 05:42:56;;;;;;;24.85;18.15;;;13.90;99.90;;;;;;4992493;28;20086;-73
2022/09/12 05:45:22;;;;;;;22.60;17.17;;;13.90;99.90;;;;;;4985872;28;20046;-73
2022/09/12 05:47:48;;;;;;;23.27;18.10;;;13.80;99.90;;;;;;5011873;28;20093;-73
2022/09/12 05:50:14;;;;;;;25.08;18.42;;;14.00;99.90;;;;;;4987210;28;20057;-72
2022/09/12 05:52:40;;;;;;;24.83;19.13;;;14.10;99.90;;;;;;5015325;28;20042;-72
2022/09/12 05:55:07;;;;;;;27.83;18.63;;;14.10;99.90;;;;;;4994671;28;20130;-72
2022/09/12 05:57:32;;;;;;;25.10;18.58;;;14.10;99.90;;;;;;5010243;28;20063;-73
2022/09/12 05:59:58;;;;;;;23.40;17.75;;;14.10;99.90;;;;;;5011703;28;20034;-73
2022/09/12 06:02:24;;;;;;;26.80;19.80;;;14.20;99.90;;;;;;5017078;28;20125;-73
2022/09/12 06:04:50;;;;;;;26.08;18.95;;;14.20;99.90;;;;;;4995450;28;20304;-72
2022/09/12 06:07:16;;;;;;;24.30;18.20;;;14.20;99.90;;;;;;5014049;28;20416;-73
2022/09/12 06:09:41;;;;;;;25.73;18.70;;;14.30;99.90;;;;;;5014640;28;20048;-73
2022/09/12 06:12:07;;;;;;;25.00;19.00;;;14.30;99.90;;;;;;4998519;28;20045;-72
2022/09/12 06:14:33;;;;;;;25.25;19.17;;;14.30;99.90;;;;;;4989030;28;20052;-72
2022/09/12 06:16:59;;;;;;;26.00;19.08;;;14.40;99.90;;;;;;5016246;28;20037;-73
2022/09/12 06:19:26;;;;;;;23.45;17.88;;;14.40;99.90;;;;;;4989871;28;20063;-73
2022/09/12 06:21:52;;;;;;;24.77;18.50;;;14.40;99.90;;;;;;5011390;28;20034;-73
2022/09/12 06:24:20;;;;;;;25.48;18.58;;;14.50;99.90;;;;;;5014481;28;20573;-73
2022/09/12 06:26:47;;;;;;;26.20;18.50;;;14.50;99.90;;;;;;5010528;28;20141;-73
2022/09/12 06:29:13;;;;;;;26.08;19.10;;;14.50;99.90;;;;;;4997995;28;20748;-73
2022/09/12 06:31:41;;;;;;;25.38;19.30;;;14.50;99.90;;;;;;5014821;28;20520;-72
2022/09/12 06:34:10;;;;;;;25.02;19.52;;;14.60;99.90;;;;;;4999629;28;20046;-73
2022/09/12 06:36:40;;;;;;;26.52;19.70;;;14.60;99.90;;;;;;5013271;28;20035;-73
2022/09/12 06:39:11;;;;;;;25.98;19.00;;;14.70;99.90;;;;;;5036032;28;20446;-72
2022/09/12 06:41:37;;;;;;;25.92;19.50;;;14.70;99.90;;;;;;4993065;28;20104;-73
2022/09/12 06:44:06;;;;;;;26.08;19.67;;;14.80;99.90;;;;;;4997357;28;20042;-73
2022/09/12 06:46:32;;;;;;;27.13;19.27;;;14.80;99.90;;;;;;4996872;28;20041;-72
2022/09/12 06:49:01;;;;;;;30.35;20.63;;;14.80;99.90;;;;;;4997359;28;20044;-73
2022/09/12 06:51:30;;;;;;;25.92;19.88;;;14.90;99.90;;;;;;4993144;28;20111;-73
2022/09/12 06:53:57;;;;;;;28.80;20.23;;;14.90;99.90;;;;;;4999450;28;20136;-72
2022/09/12 06:56:25;;;;;;;28.50;21.17;;;14.90;99.90;;;;;;5010392;28;20041;-72
2022/09/12 06:58:52;;;;;;;29.52;21.15;;;15.00;99.90;;;;;;5010373;28;20568;-72
2022/09/12 07:01:24;;;;;;;30.38;21.10;;;15.00;99.90;;;;;;4999777;28;20071;-73
2022/09/12 07:03:52;;;;;;;30.45;22.45;;;15.00;99.90;;;;;;5004162;28;20040;-73
2022/09/12 07:06:20;;;;;;;28.98;20.42;;;15.10;99.90;;;;;;4995439;28;20053;-72
2022/09/12 07:08:47;;;;;;;28.85;20.67;;;15.00;99.90;;;;;;4990286;28;20056;-73
2022/09/12 07:11:24;;;;;;;29.95;21.75;;;15.00;99.90;;;;;;5013035;28;20050;-73
2022/09/12 07:13:52;;;;;;;29.25;21.25;;;15.10;99.90;;;;;;5018443;28;20025;-73
2022/09/12 07:16:18;;;;;;;30.17;21.10;;;15.90;99.90;;;;;;5002964;28;20420;-72
2022/09/12 07:18:50;;;;;;;28.27;21.33;;;15.20;99.90;;;;;;4997944;28;20077;-72
2022/09/12 07:21:16;;;;;;;28.80;21.50;;;15.20;99.90;;;;;;5003477;28;20569;-72
2022/09/12 07:23:43;;;;;;;29.10;21.05;;;15.80;99.90;;;;;;5019370;28;20085;-73
2022/09/12 07:26:11;;;;;;;30.17;22.13;;;15.30;99.90;;;;;;4989154;28;20436;-72
2022/09/12 07:28:37;;;;;;;30.90;22.40;;;15.40;99.90;;;;;;5019684;28;20107;-72
2022/09/12 07:31:11;;;;;;;31.60;22.50;;;15.40;99.90;;;;;;5012205;28;20504;-73
2022/09/12 07:33:38;;;;;;;30.13;21.58;;;15.50;99.90;;;;;;5001043;28;20076;-73
2022/09/12 07:36:07;;;;;;;32.13;22.17;;;15.60;99.90;;;;;;4987713;28;20907;-73
2022/09/12 07:38:33;;;;;;;30.27;21.95;;;15.70;99.90;;;;;;5020172;28;20040;-74
2022/09/12 07:41:00;;;;;;;33.22;22.80;;;15.70;99.90;;;;;;5016785;28;20041;-73
2022/09/12 07:43:26;;;;;;;29.60;21.88;;;15.90;99.90;;;;;;5010827;28;20041;-73
2022/09/12 07:45:58;;;;;;;31.88;22.50;;;15.90;99.90;;;;;;5001817;28;20531;-73
2022/09/12 07:48:24;;;;;;;32.90;22.92;;;16.00;99.90;;;;;;5004389;28;20384;-73
2022/09/12 07:51:01;;;;;;;30.75;21.85;;;16.00;99.90;;;;;;5006924;28;20038;-73
2022/09/12 07:53:31;;;;;;;31.85;22.02;;;16.10;99.90;;;;;;4995358;28;20041;-72
2022/09/12 07:55:57;;;;;;;32.65;23.02;;;16.00;99.90;;;;;;5012936;28;20411;-73
2022/09/12 07:58:24;;;;;;;32.65;22.83;;;16.20;99.90;;;;;;5022134;28;20042;-73
2022/09/12 08:00:49;;;;;;;30.25;21.02;;;16.20;99.90;;;;;;5011250;28;20468;-73
2022/09/12 08:03:16;;;;;;;32.15;22.60;;;16.20;99.90;;;;;;4998462;28;20132;-73
2022/09/12 08:05:42;;;;;;;32.47;23.05;;;16.30;99.90;;;;;;5013226;28;20041;-72
2022/09/12 08:08:08;;;;;;;31.15;22.33;;;16.30;99.90;;;;;;5002517;28;20463;-72
2022/09/12 08:10:35;;;;;;;31.60;22.13;;;16.40;99.90;;;;;;5001329;28;20911;-72
2022/09/12 08:13:02;;;;;;;32.58;21.23;;;16.50;99.90;;;;;;5012095;28;20041;-73
2022/09/12 08:15:28;;;;;;;32.58;22.23;;;16.50;99.90;;;;;;5004404;28;20045;-72
2022/09/12 08:17:56;;;;;;;32.22;22.08;;;16.70;99.90;;;;;;4993412;28;20120;-73
2022/09/12 08:20:23;;;;;;;30.40;20.98;;;16.70;99.90;;;;;;5005815;28;20041;-73
2022/09/12 08:22:49;;;;;;;31.30;21.52;;;16.80;99.90;;;;;;4994448;28;20123;-72
2022/09/12 08:25:15;;;;;;;32.53;21.98;;;16.90;99.90;;;;;;4998927;28;20048;-73
2022/09/12 08:27:41;;;;;;;30.58;21.48;;;16.90;99.90;;;;;;5010913;28;20404;-72
2022/09/12 08:30:08;;;;;;;30.48;20.27;;;17.00;99.90;;;;;;4998896;28;20030;-72
2022/09/12 08:32:34;;;;;;;29.17;20.23;;;17.00;99.90;;;;;;5016094;28;20432;-73
2022/09/12 08:35:00;;;;;;;31.95;21.80;;;17.10;99.90;;;;;;5011294;28;20045;-73
2022/09/12 08:37:29;;;;;;;28.63;20.02;;;17.10;99.90;;;;;;4980857;28;20037;-72
2022/09/12 08:39:55;;;;;;;30.10;20.42;;;17.20;99.90;;;;;;5015458;28;20442;-73
2022/09/12 08:42:49;;;;;;;29.88;21.17;;;17.20;99.90;;;;;;4985771;28;20033;-73
2022/09/12 08:45:43;;;;;;;30.42;20.67;;;17.30;99.90;;;;;;5009638;28;20496;-73
2022/09/12 08:48:10;;;;;;;29.45;20.50;;;17.40;99.90;;;;;;4994536;28;20042;-73
2022/09/12 08:50:36;;;;;;;31.77;20.25;;;17.50;99.90;;;;;;5019818;28;20038;-73
2022/09/12 08:53:12;;;;;;;26.73;19.42;;;17.60;99.90;;;;;;5012375;28;20048;-73
2022/09/12 08:55:57;;;;;;;29.17;19.13;;;17.70;99.90;;;;;;5019233;28;20057;-72
2022/09/12 08:58:26;;;;;;;27.08;18.85;;;17.80;99.90;;;;;;5023663;28;20045;-73
2022/09/12 09:01:14;;;;;;;28.02;19.90;;;17.90;99.90;;;;;;5014649;28;20049;-73
2022/09/12 09:04:11;;;;;;;27.50;16.75;;;18.00;99.90;;;;;;5023009;28;20455;-73
2022/09/12 09:07:05;;;;;;;25.58;16.90;;;18.00;99.90;;;;;;5013503;28;20038;-72
2022/09/12 09:09:52;;;;;;;21.52;15.65;;;18.20;99.90;;;;;;5023500;28;20077;-73
2022/09/12 09:12:36;;;;;;;22.00;14.70;;;18.20;99.90;;;;;;4997825;28;20072;-72
2022/09/12 09:15:20;;;;;;;23.02;16.00;;;18.30;99.90;;;;;;5042067;28;20500;-73
2022/09/12 09:17:57;;;;;;;23.48;15.00;;;18.30;99.90;;;;;;5017846;28;20046;-72
2022/09/12 09:21:01;;;;;;;22.52;14.48;;;18.40;99.90;;;;;;5018903;28;20247;-73
2022/09/12 09:23:32;;;;;;;21.23;14.35;;;18.40;99.90;;;;;;5001048;28;20380;-73
2022/09/12 09:26:01;;;;;;;22.45;14.40;;;18.50;99.90;;;;;;5017971;28;20059;-73
2022/09/12 09:28:54;;;;;;;26.00;15.55;;;18.50;99.90;;;;;;5018476;28;20045;-73
2022/09/12 09:31:22;;;;;;;24.23;15.05;;;18.60;99.90;;;;;;5024542;28;20052;-73
2022/09/12 09:33:50;;;;;;;22.08;15.45;;;18.60;99.90;;;;;;4995929;28;20057;-72
2022/09/12 09:36:53;;;;;;;25.55;15.77;;;18.60;99.90;;;;;;4999215;28;20505;-72
2022/09/12 09:39:33;;;;;;;24.25;15.13;;;18.60;99.90;;;;;;5019157;28;20041;-73
2022/09/12 09:42:21;;;;;;;23.58;14.77;;;18.70;99.90;;;;;;5014923;28;20048;-73
2022/09/12 09:44:47;;;;;;;22.52;15.50;;;18.70;99.90;;;;;;5008127;28;20107;-73
2022/09/12 09:47:14;;;;;;;24.92;15.85;;;18.80;99.90;;;;;;4986175;28;20563;-72
2022/09/12 09:49:43;;;;;;;26.42;17.17;;;;;;;;;;5018509;28;20080;-72
2022/09/12 09:52:13;;;;;;;24.27;15.85;;;18.80;99.90;;;;;;4996527;28;20132;-74
2022/09/12 09:54:56;;;;;;;25.83;16.30;;;18.90;99.90;;;;;;5018930;28;20054;-73
2022/09/12 09:57:34;;;;;;;25.35;15.75;;;19.10;99.90;;;;;;5017000;28;20076;-73
2022/09/12 10:00:24;;;;;;;23.45;15.75;;;18.80;99.90;;;;;;5002908;28;20046;-72
2022/09/12 10:03:29;;;;;;;25.75;16.10;;;19.30;99.90;;;;;;5014980;28;20491;-73
2022/09/12 10:06:25;;;;;;;26.25;15.60;;;19.40;99.90;;;;;;4995797;28;20111;-73
2022/09/12 10:09:23;;;;;;;26.83;15.60;;;19.50;99.90;;;;;;5017203;28;20057;-73
2022/09/12 10:11:52;;;;;;;27.10;17.10;;;19.50;99.90;;;;;;5015608;28;20162;-73
2022/09/12 10:14:38;;;;;;;26.42;17.45;;;19.60;99.90;;;;;;5018210;28;20128;-73
2022/09/12 10:17:28;;;;;;;28.23;17.85;;;19.70;99.90;;;;;;5010104;28;20045;-73
2022/09/12 10:19:55;;;;;;;25.10;16.67;;;19.80;99.90;;;;;;4991897;28;20049;-73
2022/09/12 10:22:25;;;;;;;24.40;15.73;;;19.90;99.90;;;;;;5015387;28;20096;-73
2022/09/12 10:24:53;;;;;;;25.73;17.80;;;20.00;99.90;;;;;;5018940;28;20036;-73
2022/09/12 10:27:23;;;;;;;25.65;16.67;;;20.10;99.90;;;;;;5019960;28;20045;-73
2022/09/12 10:30:16;;;;;;;26.92;16.83;;;20.20;99.90;;;;;;4997925;28;20037;-72
2022/09/12 10:32:45;;;;;;;25.92;16.65;;;20.40;99.90;;;;;;5011817;28;20049;-73
2022/09/12 10:35:22;;;;;;;25.70;16.75;;;20.60;99.90;;;;;;4997929;28;20048;-72
2022/09/12 10:38:04;;;;;;;27.23;17.42;;;20.60;99.90;;;;;;5015334;28;20041;-73
2022/09/12 10:40:38;;;;;;;26.13;16.07;;;20.70;99.90;;;;;;5015373;28;20505;-73
2022/09/12 10:43:17;;;;;;;25.70;16.00;;;20.80;99.90;;;;;;5015303;28;20857;-73
2022/09/12 10:45:43;;;;;;;24.77;15.88;;;20.90;99.90;;;;;;4996900;28;20113;-73
2022/09/12 10:48:30;;;;;;;23.63;15.68;;;21.00;99.90;;;;;;5015561;28;20120;-73
2022/09/12 10:50:57;;;;;;;23.48;14.57;;;21.00;99.90;;;;;;5001762;28;20163;-72
2022/09/12 10:54:01;;;;;;;26.20;14.75;;;21.10;99.90;;;;;;5015176;28;20075;-72
2022/09/12 10:56:38;;;;;;;22.65;13.85;;;21.30;99.90;;;;;;5028129;28;20045;-73
2022/09/12 10:59:23;;;;;;;22.42;13.82;;;21.30;99.90;;;;;;4993756;28;20042;-74
2022/09/12 11:01:54;;;;;;;23.60;14.23;;;21.40;99.90;;;;;;4986380;28;20034;-73
2022/09/12 11:04:19;;;;;;;21.10;12.45;;;21.40;99.90;;;;;;5032775;28;20037;-73
2022/09/12 11:07:13;;;;;;;20.10;12.10;;;21.50;99.90;;;;;;5018934;28;20511;-73
2022/09/12 11:10:01;;;;;;;21.67;13.35;;;21.50;99.90;;;;;;5015363;28;20081;-73
2022/09/12 11:12:36;;;;;;;19.15;11.95;;;21.60;99.90;;;;;;5006436;28;20050;-74
2022/09/12 11:15:11;;;;;;;18.38;10.80;;;21.60;99.90;;;;;;5018241;28;20045;-73
2022/09/12 11:17:48;;;;;;;24.60;12.82;;;21.70;99.90;;;;;;5022382;28;20077;-73
2022/09/12 11:20:14;;;;;;;21.35;12.68;;;21.70;99.90;;;;;;4999794;28;20033;-72
2022/09/12 11:22:51;;;;;;;21.63;12.77;;;21.70;99.90;;;;;;5014954;28;20042;-73
2022/09/12 11:25:32;;;;;;;19.50;11.93;;;21.80;99.90;;;;;;5013515;28;20604;-73
2022/09/12 11:28:20;;;;;;;22.50;12.90;;;21.80;99.90;;;;;;4994844;28;20124;-74
2022/09/12 11:31:15;;;;;;;19.60;11.45;;;21.90;99.90;;;;;;5048365;28;20167;-72
2022/09/12 11:33:45;;;;;;;19.60;11.82;;;22.00;99.90;;;;;;5025044;28;20536;-73
2022/09/12 11:36:20;;;;;;;20.70;11.80;;;22.00;99.90;;;;;;5002899;28;20076;-74
2022/09/12 11:38:57;;;;;;;18.60;10.82;;;22.10;99.90;;;;;;5016549;28;20092;-72
2022/09/12 11:41:34;;;;;;;21.85;12.45;;;22.20;99.90;;;;;;4995178;28;20050;-73
2022/09/12 11:44:22;;;;;;;17.85;10.70;;;22.20;99.90;;;;;;5013328;28;20146;-72
2022/09/12 11:46:48;;;;;;;18.92;10.27;;;22.30;99.90;;;;;;4999847;28;20081;-73
2022/09/12 11:49:36;;;;;;;17.88;10.68;;;22.40;99.90;;;;;;4987504;28;20042;-73
2022/09/12 11:52:10;;;;;;;17.48;9.77;;;22.40;99.90;;;;;;5008334;28;20500;-73
2022/09/12 11:54:46;;;;;;;19.45;9.88;;;22.50;99.90;;;;;;5020970;28;20053;-73
2022/09/12 11:57:32;;;;;;;18.95;10.27;;;22.50;99.90;;;;;;5014772;28;20044;-73
2022/09/12 12:00:31;;;;;;;16.73;9.65;;;22.50;99.90;;;;;;5019466;28;20630;-73
2022/09/12 12:03:25;;;;;;;15.85;8.90;;;22.60;99.90;;;;;;5001556;28;20125;-73
2022/09/12 12:05:58;;;;;;;16.25;9.27;;;22.70;99.90;;;;;;4996438;28;20134;-73
2022/09/12 12:08:28;;;;;;;16.55;9.60;;;22.80;99.90;;;;;;5012663;28;20038;-72
2022/09/12 12:11:02;;;;;;;13.65;7.78;;;22.80;99.90;;;;;;4997182;28;20392;-72
2022/09/12 12:13:58;;;;;;;13.35;6.93;;;22.80;99.90;;;;;;5019803;28;20038;-73
2022/09/12 12:16:37;;;;;;;13.70;7.40;;;23.00;99.90;;;;;;5016251;28;20043;-74
2022/09/12 12:19:24;;;;;;;15.80;8.43;;;23.00;99.90;;;;;;5013405;28;20570;-73
2022/09/12 12:21:51;;;;;;;13.82;7.95;;;23.00;99.90;;;;;;5007342;28;20152;-74
2022/09/12 12:24:27;;;;;;;14.13;8.32;;;23.00;99.90;;;;;;5019420;28;20087;-73
2022/09/12 12:26:56;;;;;;;13.35;7.50;;;22.90;99.90;;;;;;5004015;28;20049;-73
2022/09/12 12:29:22;;;;;;;15.63;7.75;;;22.90;99.90;;;;;;4999464;28;20088;-73
2022/09/12 12:32:03;;;;;;;14.10;7.18;;;23.00;99.90;;;;;;5017055;28;20084;-73
2022/09/12 12:34:45;;;;;;;13.93;8.70;;;23.00;99.90;;;;;;5021938;28;20046;-73
2022/09/12 12:37:28;;;;;;;15.52;7.93;;;23.30;99.90;;;;;;5002251;28;20691;-73
2022/09/12 12:40:03;;;;;;;14.35;7.72;;;23.30;99.90;;;;;;5021444;28;20117;-72
2022/09/12 12:42:32;;;;;;;16.35;8.20;;;23.30;99.90;;;;;;5020451;28;20471;-72
2022/09/12 12:45:02;;;;;;;13.88;7.82;;;23.20;99.90;;;;;;4998972;28;20045;-73
2022/09/12 12:47:38;;;;;;;13.00;7.50;;;23.10;99.90;;;;;;5020843;28;20041;-73
2022/09/12 12:50:10;;;;;;;16.42;7.43;;;22.50;99.90;;;;;;4998292;28;20045;-72
2022/09/12 12:52:49;;;;;;;13.07;7.38;;;23.10;99.90;;;;;;5017100;28;20052;-73
2022/09/12 12:55:27;;;;;;;12.25;6.53;;;23.20;99.90;;;;;;5019396;28;20088;-72
2022/09/12 12:57:55;;;;;;;14.32;6.90;;;23.40;99.90;;;;;;5020307;28;20068;-73
2022/09/12 13:00:24;;;;;;;11.77;6.63;;;23.50;99.90;;;;;;5005066;28;20464;-73
2022/09/12 13:03:05;;;;;;;13.80;7.07;;;23.50;99.90;;;;;;5024476;28;20041;-74